首页
METAR-TAF:

METAR-TAF

机场 :

Spangdahlem, 德国

纬度: 49-59N, 经度: 006-42E, 海拔: 365米

当前天气观测

该预报发布于1小时和1分钟前的07:56 UTC
风速9节,风向东转东北
温度 24°C
湿度 57%
气压 1026 hPa
能见度10公里或以上
少量云层高于4800英尺

METAR: ETAD 270756Z AUTO 07009KT 9999 FEW048 24/15 A3031 RMK AO2 SLP236 T02360148

时间: 10:57 (08:57 UTC)

预报

该预报发布于4小时和57分钟前的04:00 UTC
预报有效从27日的 04点(UTC)到 28日的 10点(UTC)
风速9节,风向东北
能见度10公里或以上
少量云层高于4000英尺
成为
从 28日的 02点(UTC)到 28日的 03点(UTC)
风速6节,风向东北
能見度: 8000
天空无云
轻雾
成为
从 28日的 05点(UTC)到 28日的 06点(UTC)
风速9节,风向东北
能见度10公里或以上
天空无云

TAF: ETAD 270400Z 2704/2810 04009KT 9999 FEW040 QNH3026INS BECMG 2802/2803 04006KT 8000 BR SKC QNH3027INS BECMG 2805/2806 05009KT 9999 NSW SKC QNH3026INS TX28/2714Z TN14/2803Z

超过4000个机场的气象观测和天气预报(METAR&TAF报告)。

可查询的气象台以黄色和红色小点在地图上表示。

将鼠标移到小点上方,可查看气象台名称。

然后点击查看天气观测和预报。

如需切换地图:点击带黑十字的绿色按钮放大地图;点击带横线的绿色按钮缩小地图;或者点击绿色箭头查看邻近地区的地图。


METAR-TAF: